Time;durP1;ratioP1;P1;durP2;ratioP2;P2;SDS_P1;SDS_P2;PMS_P1;PMS_P2;Temp;Humidity;BMP_temperature;BMP_pressure;BME280_temperature;BME280_humidity;BME280_pressure;Samples;Min_cycle;Max_cycle;Signal;HPM_P1;HPM_P2
2023/06/30 00:02:02;;;;;;;6.55;4.20;;;;;;;21.24;58.54;96327.00;4916563;29;20107;-79
2023/06/30 00:04:32;;;;;;;4.72;3.75;;;;;;;21.17;58.55;96331.75;4916492;29;20055;-79
2023/06/30 00:07:00;;;;;;;11.27;3.78;;;;;;;21.12;58.81;96329.88;4916567;29;20040;-79
2023/06/30 00:09:29;;;;;;;5.40;3.45;;;;;;;21.07;58.59;96331.66;4916125;29;20048;-79
2023/06/30 00:11:57;;;;;;;3.72;3.38;;;;;;;21.03;58.68;96319.97;4916731;29;20051;-79
2023/06/30 00:14:25;;;;;;;5.95;3.90;;;;;;;20.95;58.83;96324.69;4916547;29;20495;-79
2023/06/30 00:16:55;;;;;;;5.22;4.60;;;;;;;20.89;59.01;96315.09;4916380;29;20515;-79
2023/06/30 00:19:23;;;;;;;4.60;3.75;;;;;;;20.86;59.25;96314.81;4916289;29;20141;-79
2023/06/30 00:21:52;;;;;;;7.32;4.28;;;;;;;20.82;59.42;96308.44;4916132;29;20460;-79
2023/06/30 00:24:20;;;;;;;7.80;4.10;;;;;;;20.79;59.57;96312.38;4916679;29;20139;-78
2023/06/30 00:26:50;;;;;;;4.18;3.53;;;;;;;20.77;59.64;96303.88;4920902;29;20052;-79
2023/06/30 00:29:18;;;;;;;4.95;4.25;;;;;;;20.80;59.74;96300.72;4920330;29;20392;-79
2023/06/30 00:31:45;;;;;;;6.13;4.05;;;;;;;20.76;59.63;96305.72;4920303;29;20048;-79
2023/06/30 00:34:13;;;;;;;4.65;3.35;;;;;;;20.73;59.89;96300.94;4920785;29;20110;-76
2023/06/30 00:36:40;;;;;;;5.82;3.80;;;;;;;20.76;60.18;96305.72;4939885;29;20060;-77
2023/06/30 00:39:08;;;;;;;4.22;3.83;;;;;;;20.84;60.04;96304.47;4936848;29;20052;-77
2023/06/30 00:41:36;;;;;;;4.95;4.22;;;;;;;20.86;59.72;96305.03;4921811;29;20084;-77
2023/06/30 00:44:05;;;;;;;4.43;3.80;;;;;;;20.83;59.78;96305.50;4920672;29;20147;-76
2023/06/30 00:46:33;;;;;;;4.80;4.38;;;;;;;20.81;59.84;96301.53;4920286;29;20110;-76
2023/06/30 00:49:01;;;;;;;6.88;4.03;;;;;;;20.76;59.95;96302.28;4919971;29;20063;-77
2023/06/30 00:51:29;;;;;;;9.30;4.47;;;;;;;20.71;60.20;96292.44;4919626;29;20056;-77
2023/06/30 00:53:57;;;;;;;4.55;4.15;;;;;;;20.66;60.75;96287.13;4919126;29;20060;-76
2023/06/30 00:56:25;;;;;;;4.72;4.20;;;;;;;20.64;60.83;96285.75;4919307;29;20511;-77
2023/06/30 00:58:52;;;;;;;6.40;4.50;;;;;;;20.60;60.64;96285.47;4919855;29;20048;-77
2023/06/30 01:01:29;;;;;;;5.80;4.30;;;;;;;20.56;61.40;96287.78;4918975;29;20468;-77
2023/06/30 01:04:04;;;;;;;5.82;4.18;;;;;;;20.51;61.52;96282.47;4920196;29;20072;-76
2023/06/30 01:06:37;;;;;;;5.10;3.80;;;;;;;20.47;61.41;96276.06;4920639;29;20087;-77
2023/06/30 01:09:11;;;;;;;9.15;4.38;;;;;;;20.43;61.36;96272.31;4920094;29;20056;-76
2023/06/30 01:11:40;;;;;;;4.70;4.22;;;;;;;20.36;61.33;96263.78;4919965;29;20079;-77
2023/06/30 01:14:11;;;;;;;7.05;4.55;;;;;;;20.32;61.46;96273.28;4920071;29;20486;-76
2023/06/30 01:16:41;;;;;;;6.18;4.35;;;;;;;20.26;61.66;96271.63;4920004;29;20127;-77
2023/06/30 01:19:19;;;;;;;4.20;3.72;;;;;;;20.19;61.96;96265.75;4919804;29;20066;-77
2023/06/30 01:21:47;;;;;;;4.38;3.97;;;;;;;20.17;61.81;96261.50;4920046;29;20059;-77
2023/06/30 01:24:20;;;;;;;5.63;4.45;;;;;;;20.17;62.14;96261.50;4919720;29;20091;-77
2023/06/30 01:26:49;;;;;;;4.60;3.65;;;;;;;20.16;61.89;96257.25;4919824;29;20059;-77
2023/06/30 01:29:18;;;;;;;4.30;3.90;;;;;;;20.17;62.27;96261.50;4919282;29;20055;-77
2023/06/30 01:31:47;;;;;;;5.70;4.40;;;;;;;20.16;62.22;96257.25;4919416;29;20052;-77
2023/06/30 01:34:15;;;;;;;6.93;3.90;;;;;;;20.16;62.18;96246.66;4919380;29;20048;-76
2023/06/30 01:36:43;;;;;;;5.13;4.25;;;;;;;20.15;62.12;96246.91;4919180;29;20107;-77
2023/06/30 01:39:10;;;;;;;5.45;3.97;;;;;;;20.14;62.24;96248.75;4919224;29;20048;-76
2023/06/30 01:41:38;;;;;;;4.60;4.10;;;;;;;20.19;62.28;96248.00;4919340;29;20083;-77
2023/06/30 01:44:06;;;;;;;4.47;4.07;;;;;;;20.19;62.20;96248.00;4919371;29;20079;-77
2023/06/30 01:46:34;;;;;;;4.80;4.03;;;;;;;20.13;62.49;96233.91;4919382;29;20156;-77
2023/06/30 01:49:03;;;;;;;5.95;4.40;;;;;;;20.12;62.75;96234.19;4919276;29;20056;-77
2023/06/30 01:51:31;;;;;;;5.15;3.83;;;;;;;20.09;62.63;96226.72;4919233;29;20063;-77
2023/06/30 01:53:59;;;;;;;6.70;3.92;;;;;;;20.03;62.84;96220.59;4918965;29;20079;-77
2023/06/30 01:56:27;;;;;;;6.10;4.60;;;;;;;19.99;62.85;96224.78;4918888;29;20108;-77
2023/06/30 01:58:54;;;;;;;6.05;4.45;;;;;;;19.96;62.64;96222.63;4918685;29;20060;-77
2023/06/30 02:01:22;;;;;;;6.80;4.10;;;;;;;19.91;62.69;96215.44;4918561;29;20051;-77
2023/06/30 02:03:50;;;;;;;5.47;4.40;;;;;;;19.87;62.93;96216.19;4918542;29;20055;-77
2023/06/30 02:06:19;;;;;;;4.45;4.05;;;;;;;19.85;63.07;96221.72;4918336;29;20091;-77
2023/06/30 02:08:47;;;;;;;4.78;3.83;;;;;;;19.84;62.89;96214.84;4918439;29;20084;-77
2023/06/30 02:11:14;;;;;;;4.78;4.22;;;;;;;19.82;63.19;96222.25;4918434;29;20062;-77
2023/06/30 02:13:42;;;;;;;6.85;4.60;;;;;;;19.84;62.91;96219.34;4918476;29;20084;-77
2023/06/30 02:16:09;;;;;;;7.70;4.53;;;;;;;19.83;62.92;96215.09;4918350;29;20079;-77
2023/06/30 02:18:39;;;;;;;5.35;4.18;;;;;;;19.79;63.01;96221.94;4918220;29;20062;-77
2023/06/30 02:21:06;;;;;;;6.63;4.57;;;;;;;19.73;63.11;96224.53;4918167;29;20059;-77
2023/06/30 02:23:35;;;;;;;5.43;4.80;;;;;;;19.70;63.39;96217.09;4918171;29;20056;-77
2023/06/30 02:26:03;;;;;;;5.85;4.57;;;;;;;19.69;63.30;96215.50;4918420;29;20256;-77
2023/06/30 02:28:30;;;;;;;4.97;4.30;;;;;;;19.67;63.45;96214.91;4918102;29;20479;-75
2023/06/30 02:30:59;;;;;;;6.13;4.32;;;;;;;19.70;63.45;96221.56;4917210;29;20135;-75
2023/06/30 02:33:26;;;;;;;5.68;4.35;;;;;;;19.73;63.42;96218.44;4917804;29;20048;-75
2023/06/30 02:35:54;;;;;;;5.35;4.55;;;;;;;19.79;63.32;96219.28;4917460;29;20127;-75
2023/06/30 02:38:21;;;;;;;5.50;4.47;;;;;;;19.84;63.37;96224.66;4917277;29;20476;-76
2023/06/30 02:40:50;;;;;;;4.95;4.47;;;;;;;19.91;63.12;96222.59;4917002;29;20088;-76
2023/06/30 02:43:18;;;;;;;5.18;4.32;;;;;;;19.94;63.09;96220.25;4917107;29;20056;-75
2023/06/30 02:45:46;;;;;;;4.70;4.20;;;;;;;20.02;62.67;96226.13;4917418;29;20052;-75
2023/06/30 02:48:14;;;;;;;8.27;4.60;;;;;;;20.05;62.62;96223.78;4916577;29;20059;-75
2023/06/30 02:50:42;;;;;;;6.57;5.55;;;;;;;20.05;62.64;96223.78;4917256;29;20048;-75
2023/06/30 02:53:09;;;;;;;6.57;5.13;;;;;;;20.03;62.54;96219.78;4917119;29;20076;-75
2023/06/30 02:55:37;;;;;;;6.13;5.43;;;;;;;19.96;62.90;96223.44;4917231;29;20083;-75
2023/06/30 02:58:07;;;;;;;6.35;5.38;;;;;;;19.88;63.24;96223.09;4917004;29;20483;-75
2023/06/30 03:00:34;;;;;;;9.65;5.15;;;;;;;19.80;63.37;96220.91;4916708;29;20055;-75
2023/06/30 03:03:04;;;;;;;7.13;5.53;;;;;;;19.73;63.64;96224.53;4916990;29;20095;-75
2023/06/30 03:05:34;;;;;;;6.05;4.88;;;;;;;19.71;63.75;96218.69;4916971;29;20068;-75
2023/06/30 03:08:03;;;;;;;8.75;5.70;;;;;;;19.69;63.75;96215.50;4917019;29;20111;-75
2023/06/30 03:10:30;;;;;;;6.07;5.47;;;;;;;19.69;64.06;96220.78;4916366;29;20428;-75
2023/06/30 03:12:58;;;;;;;6.50;5.90;;;;;;;19.70;64.04;96225.03;4917051;29;20048;-75
2023/06/30 03:15:27;;;;;;;8.18;5.78;;;;;;;19.69;64.09;96207.56;4916845;29;20452;-75
2023/06/30 03:17:55;;;;;;;10.48;6.32;;;;;;;19.65;64.13;96217.00;4916567;29;20084;-75
2023/06/30 03:20:23;;;;;;;6.07;5.47;;;;;;;19.61;64.33;96213.25;4916286;29;20112;-75
2023/06/30 03:22:53;;;;;;;7.25;5.85;;;;;;;19.59;64.49;96215.38;4920981;29;20051;-75
2023/06/30 03:25:21;;;;;;;7.50;6.28;;;;;;;19.58;64.45;96223.56;4935534;29;20052;-75
2023/06/30 03:27:49;;;;;;;8.00;6.05;;;;;;;19.55;64.66;96219.56;4928697;29;20052;-75
2023/06/30 03:30:17;;;;;;;6.45;5.63;;;;;;;19.56;64.86;96221.16;4933735;29;20059;-75
2023/06/30 03:32:45;;;;;;;8.65;6.55;;;;;;;19.62;64.64;96228.09;4934238;29;20081;-74
2023/06/30 03:35:13;;;;;;;8.18;6.32;;;;;;;19.62;64.56;96217.50;4934290;29;20080;-78
2023/06/30 03:37:41;;;;;;;7.65;6.85;;;;;;;19.63;64.67;96219.09;4932326;29;20092;-75
2023/06/30 03:40:10;;;;;;;9.73;6.55;;;;;;;19.62;64.62;96217.50;4931252;29;20084;-75
2023/06/30 03:42:37;;;;;;;8.98;6.35;;;;;;;19.61;64.82;96212.47;4918681;29;20134;-75
2023/06/30 03:45:05;;;;;;;9.25;6.53;;;;;;;19.60;64.97;96219.59;4916538;29;20083;-75
2023/06/30 03:47:33;;;;;;;8.13;6.10;;;;;;;19.60;64.93;96211.66;4916556;29;20052;-75
2023/06/30 03:50:02;;;;;;;8.75;6.47;;;;;;;19.61;65.11;96210.59;4915937;29;20060;-75
2023/06/30 03:52:29;;;;;;;7.40;5.70;;;;;;;19.66;65.60;96215.97;4916588;29;20052;-75
2023/06/30 03:54:57;;;;;;;8.13;5.97;;;;;;;19.78;65.60;96212.41;4916468;29;20076;-75
2023/06/30 03:57:25;;;;;;;13.02;7.18;;;;;;;19.83;65.02;96204.50;4916201;29;20092;-75
2023/06/30 03:59:52;;;;;;;11.18;7.32;;;;;;;19.85;64.68;96202.41;4915962;29;20480;-75
2023/06/30 04:02:20;;;;;;;9.43;7.78;;;;;;;19.86;64.65;96201.38;4916828;29;20539;-75
2023/06/30 04:04:47;;;;;;;9.93;7.68;;;;;;;19.87;64.58;96197.66;4929862;29;20056;-75
2023/06/30 04:07:17;;;;;;;8.18;6.45;;;;;;;19.90;64.56;96197.19;4929479;29;20048;-75
2023/06/30 04:09:45;;;;;;;12.75;8.65;;;;;;;19.93;64.48;96194.03;4929202;29;20056;-75
2023/06/30 04:12:13;;;;;;;11.75;7.70;;;;;;;20.00;64.29;96199.13;4930395;29;20048;-75
2023/06/30 04:14:40;;;;;;;15.35;7.80;;;;;;;20.02;64.31;96195.16;4930049;29;20052;-75
2023/06/30 04:17:08;;;;;;;12.13;8.07;;;;;;;20.03;64.39;96190.66;4924638;29;20099;-75
2023/06/30 04:19:36;;;;;;;12.35;7.53;;;;;;;20.05;64.44;96186.72;4917006;29;20052;-75
2023/06/30 04:22:04;;;;;;;9.10;7.35;;;;;;;20.07;64.27;96189.09;4916294;29;20514;-75
2023/06/30 04:24:33;;;;;;;11.57;8.65;;;;;;;20.05;64.42;96181.44;4915865;29;20144;-75
2023/06/30 04:27:01;;;;;;;9.95;7.00;;;;;;;20.07;64.32;96181.97;4916016;29;20139;-75
2023/06/30 04:29:29;;;;;;;12.93;9.00;;;;;;;20.04;64.21;96177.19;4916207;29;20056;-76
2023/06/30 04:31:56;;;;;;;10.88;8.85;;;;;;;20.04;64.57;96182.47;4915632;29;20056;-75
2023/06/30 04:34:24;;;;;;;11.30;8.75;;;;;;;20.08;64.42;96178.28;4905224;29;20059;-74
2023/06/30 04:36:51;;;;;;;10.23;8.13;;;;;;;20.11;64.31;96183.06;4897044;29;20056;-74
2023/06/30 04:39:20;;;;;;;10.38;8.30;;;;;;;20.14;64.27;96174.63;4896883;29;20088;-77
2023/06/30 04:41:48;;;;;;;14.65;8.13;;;;;;;20.15;64.19;96181.50;4898308;29;20125;-73
2023/06/30 04:44:16;;;;;;;12.65;8.43;;;;;;;20.12;64.16;96178.56;4897085;29;20104;-74
2023/06/30 04:46:44;;;;;;;14.02;8.98;;;;;;;20.11;64.46;96177.75;4900817;29;20131;-72
2023/06/30 04:49:11;;;;;;;11.02;7.78;;;;;;;20.12;64.44;96175.94;4896562;29;20056;-74
2023/06/30 04:51:39;;;;;;;10.02;8.40;;;;;;;20.14;64.50;96182.56;4896696;29;20080;-74
2023/06/30 04:54:06;;;;;;;10.55;8.25;;;;;;;20.16;64.15;96179.69;4900137;29;20476;-75
2023/06/30 04:56:34;;;;;;;11.82;9.18;;;;;;;20.20;64.08;96177.31;4896789;29;20084;-73
2023/06/30 04:59:03;;;;;;;12.25;8.48;;;;;;;20.24;64.30;96170.44;4897038;29;20115;-73
2023/06/30 05:01:32;;;;;;;11.35;8.45;;;;;;;20.25;64.19;96164.13;4901082;29;20456;-73
2023/06/30 05:04:00;;;;;;;9.93;7.80;;;;;;;20.27;64.12;96164.63;4906981;29;20048;-73
2023/06/30 05:06:28;;;;;;;11.18;8.82;;;;;;;20.27;64.13;96169.94;4915220;29;20052;-73
2023/06/30 05:08:55;;;;;;;12.02;9.18;;;;;;;20.24;64.39;96165.16;4915115;29;20401;-76
2023/06/30 05:11:23;;;;;;;13.60;9.90;;;;;;;20.21;64.67;96165.66;4917337;29;20096;-76
2023/06/30 05:13:50;;;;;;;14.40;8.57;;;;;;;20.24;64.42;96165.16;4913516;29;20076;-74
2023/06/30 05:16:19;;;;;;;13.57;9.60;;;;;;;20.25;64.65;96172.06;4901030;29;20053;-74
2023/06/30 05:18:47;;;;;;;12.65;9.43;;;;;;;20.25;64.61;96161.47;4912186;29;20052;-75
2023/06/30 05:21:15;;;;;;;11.80;8.98;;;;;;;20.29;64.61;96162.53;4904704;29;20080;-76
2023/06/30 05:23:42;;;;;;;16.20;10.40;;;;;;;20.30;64.73;96164.16;4904236;29;20049;-76
2023/06/30 05:26:11;;;;;;;13.73;10.20;;;;;;;20.35;64.55;96162.31;4915555;29;20051;-77
2023/06/30 05:28:39;;;;;;;11.80;8.88;;;;;;;20.45;64.38;96172.19;4916153;29;20392;-76
2023/06/30 05:31:09;;;;;;;48.33;10.88;;;;;;;20.50;64.38;96164.28;4910186;29;20060;-77
2023/06/30 05:33:38;;;;;;;13.52;9.68;;;;;;;20.50;64.45;96172.22;4920485;29;20052;-75
2023/06/30 05:36:06;;;;;;;14.85;9.93;;;;;;;20.51;64.47;96170.34;4910288;29;20063;-75
2023/06/30 05:38:34;;;;;;;13.15;9.90;;;;;;;20.48;64.34;96176.19;4909145;29;20048;-74
2023/06/30 05:41:01;;;;;;;13.10;9.93;;;;;;;20.46;64.51;96173.78;4900940;29;20083;-75
2023/06/30 05:43:29;;;;;;;12.27;9.40;;;;;;;20.46;64.40;96172.97;4901567;29;20112;-75
2023/06/30 05:45:56;;;;;;;13.02;10.30;;;;;;;20.51;64.67;96176.47;4905378;29;20128;-75
2023/06/30 05:48:24;;;;;;;14.77;10.65;;;;;;;20.55;64.32;96177.56;4901185;29;20068;-75
2023/06/30 05:50:53;;;;;;;16.67;10.48;;;;;;;20.61;64.24;96172.31;4895510;29;20056;-77
2023/06/30 05:53:21;;;;;;;12.98;10.13;;;;;;;20.69;64.42;96171.84;4898802;29;20048;-76
2023/06/30 05:55:49;;;;;;;15.82;12.15;;;;;;;20.74;64.59;96174.53;4916212;29;20056;-76
2023/06/30 05:58:17;;;;;;;17.73;12.80;;;;;;;20.80;64.20;96178.00;4916258;29;20535;-76
2023/06/30 06:00:44;;;;;;;16.52;11.52;;;;;;;20.85;63.99;96185.97;4915673;29;20056;-76
2023/06/30 06:03:12;;;;;;;18.45;12.18;;;;;;;20.90;63.81;96183.34;4916413;29;20048;-76
2023/06/30 06:05:40;;;;;;;15.05;11.60;;;;;;;20.94;63.88;96182.56;4916737;29;20044;-76
2023/06/30 06:08:09;;;;;;;19.33;13.65;;;;;;;21.01;63.70;96195.59;4899362;29;20056;-76
2023/06/30 06:10:36;;;;;;;20.00;13.07;;;;;;;21.03;63.23;96192.69;4899806;29;20539;-76
2023/06/30 06:13:04;;;;;;;19.20;13.25;;;;;;;21.04;63.67;96192.44;4917600;29;20059;-77
2023/06/30 06:15:31;;;;;;;16.67;12.52;;;;;;;21.06;63.87;96194.84;4920924;29;20066;-76
2023/06/30 06:17:59;;;;;;;17.50;12.02;;;;;;;21.07;63.62;96193.78;4918812;29;20115;-75
2023/06/30 06:20:27;;;;;;;20.15;12.48;;;;;;;21.06;63.67;96197.50;4906837;29;20460;-76
2023/06/30 06:22:54;;;;;;;14.85;11.82;;;;;;;21.06;64.06;96194.84;4897578;29;20059;-76
2023/06/30 06:25:23;;;;;;;17.15;11.60;;;;;;;21.12;63.89;96212.34;4898842;29;20092;-76
2023/06/30 06:27:51;;;;;;;16.85;12.80;;;;;;;21.18;63.32;96221.94;4898244;29;20061;-76
2023/06/30 06:30:18;;;;;;;15.20;10.98;;;;;;;21.23;63.56;96232.59;4898036;29;20104;-76
2023/06/30 06:32:46;;;;;;;14.18;10.52;;;;;;;21.31;63.28;96231.28;4898579;29;20095;-76
2023/06/30 06:35:14;;;;;;;14.38;10.52;;;;;;;21.35;63.02;96243.75;4898139;29;20049;-75
2023/06/30 06:37:41;;;;;;;14.48;10.38;;;;;;;21.38;61.81;96243.25;4898763;29;20083;-78
2023/06/30 06:40:10;;;;;;;11.20;9.15;;;;;;;21.44;61.91;96248.59;4898588;29;20084;-76
2023/06/30 06:42:39;;;;;;;14.15;10.25;;;;;;;21.47;61.39;96243.59;4898632;29;20124;-75
2023/06/30 06:45:07;;;;;;;14.43;9.15;;;;;;;21.50;61.48;96244.91;4916907;29;20055;-76
2023/06/30 06:48:11;;;;;;;11.48;8.23;;;;;;;21.56;61.35;96243.88;4909611;29;20120;-78
2023/06/30 06:50:39;;;;;;;14.18;9.52;;;;;;;21.61;60.99;96241.25;4891864;29;20060;-76
2023/06/30 06:53:06;;;;;;;12.63;8.43;;;;;;;21.66;60.68;96243.91;4897396;29;20481;-76
2023/06/30 06:55:34;;;;;;;12.43;9.13;;;;;;;21.71;60.33;96241.28;4898144;29;20139;-76
2023/06/30 06:58:03;;;;;;;12.30;8.50;;;;;;;21.75;60.17;96244.19;4898157;29;20608;-76
2023/06/30 07:00:30;;;;;;;14.20;9.43;;;;;;;21.77;60.27;96247.38;4906953;29;20134;-76
2023/06/30 07:02:58;;;;;;;9.40;7.40;;;;;;;21.81;59.95;96246.59;4912084;29;20072;-76
2023/06/30 07:05:26;;;;;;;11.18;8.30;;;;;;;21.83;59.58;96256.97;4908859;29;20051;-76
2023/06/30 07:07:53;;;;;;;13.13;8.73;;;;;;;21.85;59.51;96257.50;4898146;29;20044;-76
2023/06/30 07:10:21;;;;;;;11.15;8.20;;;;;;;21.87;59.50;96249.28;4906632;29;20062;-76
2023/06/30 07:12:48;;;;;;;11.40;7.68;;;;;;;21.90;59.34;96246.09;4917401;29;20056;-76
2023/06/30 07:15:17;;;;;;;9.60;7.53;;;;;;;21.93;59.09;96248.22;4916947;29;20135;-77
2023/06/30 07:17:45;;;;;;;8.60;7.40;;;;;;;21.93;59.32;96250.88;4912001;29;20056;-76
2023/06/30 07:20:13;;;;;;;11.68;8.40;;;;;;;21.93;59.27;96246.38;4911142;29;20128;-76
2023/06/30 07:22:40;;;;;;;9.75;7.07;;;;;;;21.95;59.08;96244.25;4897880;29;20057;-76
2023/06/30 07:25:09;;;;;;;8.98;7.30;;;;;;;22.00;58.76;96241.59;4897929;29;20140;-76
2023/06/30 07:27:38;;;;;;;8.48;7.05;;;;;;;22.03;58.96;96232.31;4897792;29;20044;-76
2023/06/30 07:30:06;;;;;;;11.90;7.63;;;;;;;22.08;59.03;96234.97;4896958;29;20431;-76
2023/06/30 07:32:35;;;;;;;11.57;8.00;;;;;;;22.12;58.59;96245.88;4897455;29;20568;-76
2023/06/30 07:35:03;;;;;;;12.05;8.35;;;;;;;22.10;58.33;96246.13;4897363;29;20056;-76
2023/06/30 07:37:31;;;;;;;8.60;6.88;;;;;;;22.02;58.59;96252.75;4898263;29;20053;-76
2023/06/30 07:39:58;;;;;;;11.50;7.07;;;;;;;22.02;58.84;96252.75;4906655;29;20087;-77
2023/06/30 07:42:43;;;;;;;9.80;7.38;;;;;;;22.07;58.88;96249.31;4917097;29;20471;-77
2023/06/30 07:45:12;;;;;;;12.25;7.18;;;;;;;22.09;58.59;96247.19;4934701;29;20044;-77
2023/06/30 07:47:41;;;;;;;9.60;7.03;;;;;;;22.12;58.52;96249.31;4937639;29;20060;-76
2023/06/30 07:50:12;;;;;;;9.90;6.60;;;;;;;22.16;58.46;96245.06;4933503;29;20052;-77
2023/06/30 07:52:41;;;;;;;9.25;6.70;;;;;;;22.20;58.33;96240.81;4916056;29;20055;-76
2023/06/30 07:55:12;;;;;;;13.35;6.47;;;;;;;22.22;58.25;96245.91;4899533;29;20148;-76
2023/06/30 07:57:40;;;;;;;8.10;6.43;;;;;;;22.24;58.31;96250.94;4897569;29;20084;-76
2023/06/30 08:00:10;;;;;;;9.90;6.15;;;;;;;22.24;58.53;96246.44;4897104;29;20080;-77
2023/06/30 08:02:38;;;;;;;11.23;6.80;;;;;;;22.23;58.43;96247.50;4919936;29;20098;-76
2023/06/30 08:05:07;;;;;;;7.40;6.53;;;;;;;22.24;58.54;96249.09;4930774;29;20048;-77
2023/06/30 08:07:35;;;;;;;10.00;6.38;;;;;;;22.27;58.99;96247.78;4935638;29;20048;-76
2023/06/30 08:10:17;;;;;;;8.52;6.43;;;;;;;22.27;58.44;96253.88;4943085;29;20365;-77
2023/06/30 08:12:45;;;;;;;10.85;6.53;;;;;;;22.28;59.22;96252.81;4928355;29;20143;-77
2023/06/30 08:15:13;;;;;;;9.52;7.20;;;;;;;22.26;59.43;96248.81;4916372;29;20143;-76
2023/06/30 08:17:40;;;;;;;9.60;7.10;;;;;;;22.24;59.91;96261.56;4916395;29;20139;-76
2023/06/30 08:20:26;;;;;;;8.27;6.45;;;;;;;22.17;59.26;96265.28;4912327;29;20060;-76
2023/06/30 08:22:54;;;;;;;7.35;6.60;;;;;;;22.13;59.86;96263.41;4922417;29;20066;-76
2023/06/30 08:25:23;;;;;;;8.38;7.35;;;;;;;22.08;60.12;96272.13;4928381;29;20059;-76
2023/06/30 08:27:51;;;;;;;9.77;7.43;;;;;;;22.04;60.55;96271.09;4910181;29;20052;-76
2023/06/30 08:30:18;;;;;;;9.63;7.03;;;;;;;22.03;61.14;96277.44;4959816;23;20103;-77
2023/06/30 08:32:50;;;;;;;8.98;7.43;;;;;;;22.00;61.38;96280.66;4934029;29;20055;-77
2023/06/30 08:35:18;;;;;;;9.63;6.78;;;;;;;22.00;61.16;96293.94;4950861;29;20047;-77
2023/06/30 08:37:48;;;;;;;9.70;6.97;;;;;;;21.99;61.11;96305.59;4937658;29;20058;-77
2023/06/30 08:40:22;;;;;;;8.13;7.13;;;;;;;21.96;61.38;96303.47;4925314;29;20052;-75
2023/06/30 08:42:53;;;;;;;7.50;6.65;;;;;;;21.90;61.83;96312.47;4925508;29;20056;-77
2023/06/30 08:45:25;;;;;;;8.35;6.18;;;;;;;21.85;61.73;96309.81;4931657;29;20538;-76
2023/06/30 08:47:53;;;;;;;9.88;6.22;;;;;;;21.79;61.93;96304.47;4926628;29;20060;-76
2023/06/30 08:50:22;;;;;;;6.60;5.35;;;;;;;21.72;62.39;96303.91;4927242;29;20138;-76
2023/06/30 08:52:51;;;;;;;7.65;6.78;;;;;;;21.67;63.01;96303.91;4918236;29;20048;-76
2023/06/30 08:55:19;;;;;;;7.40;6.53;;;;;;;21.63;63.36;96300.16;4935656;29;20075;-75
2023/06/30 08:57:47;;;;;;;7.88;6.80;;;;;;;21.59;63.67;96307.06;4933702;29;20098;-75
2023/06/30 09:00:15;;;;;;;8.65;6.93;;;;;;;21.55;63.84;96316.59;4928396;29;20062;-75
2023/06/30 09:02:44;;;;;;;10.75;6.50;;;;;;;21.53;64.32;96316.84;4937024;29;20067;-76
2023/06/30 09:05:12;;;;;;;10.18;6.90;;;;;;;21.54;64.31;96309.69;4936827;29;20058;-76
2023/06/30 09:07:46;;;;;;;9.40;6.95;;;;;;;21.54;64.56;96325.63;4936380;29;20048;-75
2023/06/30 09:12:57;;;;;;;12.65;9.23;;;;;;;21.41;64.78;96313.59;4943727;23;20064;-87
2023/06/30 09:15:25;;;;;;;10.98;8.98;;;;;;;21.42;64.51;96317.06;4935360;29;20127;-81
2023/06/30 09:17:54;;;;;;;14.82;10.40;;;;;;;21.48;64.53;96313.38;4928118;29;20052;-83
2023/06/30 09:20:22;;;;;;;16.48;11.23;;;;;;;21.51;64.51;96318.94;4927865;29;20048;-83
2023/06/30 09:22:50;;;;;;;16.27;12.43;;;;;;;21.55;64.13;96321.88;4927803;29;20044;-83
2023/06/30 09:25:43;;;;;;;18.67;11.93;;;;;;;21.55;64.10;96317.38;4928006;29;20111;-83
2023/06/30 09:28:14;;;;;;;17.63;13.15;;;;;;;21.53;64.39;96331.97;4931279;29;20123;-87
2023/06/30 09:30:46;;;;;;;20.67;13.85;;;;;;;21.45;64.91;96325.31;4933316;29;20119;-86
2023/06/30 09:33:16;;;;;;;17.00;12.02;;;;;;;21.46;64.60;96329.53;4932931;29;20107;-86
2023/06/30 09:35:46;;;;;;;20.65;14.05;;;;;;;21.47;64.77;96330.34;4933204;29;20079;-87
2023/06/30 09:38:17;;;;;;;17.70;12.85;;;;;;;21.45;64.62;96324.50;4932624;29;20059;-86
2023/06/30 09:40:47;;;;;;;23.92;14.98;;;;;;;21.38;65.07;96322.84;4932079;29;20059;-84
2023/06/30 09:43:18;;;;;;;19.70;13.35;;;;;;;21.31;65.30;96324.91;4932170;29;20051;-83
2023/06/30 09:45:48;;;;;;;18.23;13.32;;;;;;;21.31;65.55;96324.91;4928413;29;20059;-83
2023/06/30 09:48:17;;;;;;;16.42;13.10;;;;;;;21.28;65.92;96330.75;4928389;29;20084;-83
2023/06/30 09:50:45;;;;;;;16.20;12.10;;;;;;;21.20;66.67;96317.97;4926598;29;20401;-84
2023/06/30 09:53:19;;;;;;;18.10;11.55;;;;;;;21.15;67.13;96321.38;4927544;29;20120;-85
2023/06/30 09:55:49;;;;;;;16.38;11.32;;;;;;;21.13;66.92;96323.50;4927869;29;20382;-81
2023/06/30 09:58:19;;;;;;;13.68;10.88;;;;;;;21.07;67.68;96324.50;4924450;29;20523;-82
2023/06/30 10:00:50;;;;;;;13.07;10.45;;;;;;;21.01;67.42;96317.56;4925256;29;20527;-84
2023/06/30 10:03:18;;;;;;;13.95;10.35;;;;;;;20.91;67.47;96312.22;4924123;29;20100;-84
2023/06/30 10:05:48;;;;;;;14.43;10.07;;;;;;;20.86;68.22;96305.03;4924554;29;20056;-84
2023/06/30 10:08:17;;;;;;;14.48;10.82;;;;;;;20.87;68.37;96311.13;4926899;29;20063;-83
2023/06/30 10:10:45;;;;;;;12.63;9.93;;;;;;;20.84;68.71;96301.00;4939612;29;20048;-84
2023/06/30 10:13:16;;;;;;;15.40;11.55;;;;;;;20.85;68.91;96298.09;4943067;29;20040;-84
2023/06/30 10:15:46;;;;;;;14.63;10.68;;;;;;;20.83;69.27;96304.72;4936432;29;20059;-87
2023/06/30 10:18:17;;;;;;;11.65;9.27;;;;;;;20.82;69.14;96298.63;4931153;29;20088;-86
2023/06/30 10:20:45;;;;;;;14.70;9.73;;;;;;;20.84;69.11;96299.16;4931055;29;20044;-86
2023/06/30 10:23:19;;;;;;;14.30;9.13;;;;;;;20.89;68.98;96299.19;4931091;29;20067;-86
2023/06/30 10:25:48;;;;;;;11.70;9.45;;;;;;;20.92;68.91;96301.31;4931164;29;20060;-86
2023/06/30 10:28:17;;;;;;;14.20;10.68;;;;;;;20.93;69.25;96299.50;4930588;29;20063;-87
2023/06/30 10:30:50;;;;;;;14.02;9.98;;;;;;;20.97;69.15;96290.78;4929593;29;20048;-84
2023/06/30 10:33:18;;;;;;;13.32;10.40;;;;;;;21.05;69.05;96294.78;4930879;29;20482;-85
2023/06/30 10:35:47;;;;;;;12.93;9.60;;;;;;;21.10;69.17;96300.16;4930696;29;20055;-85
2023/06/30 10:38:16;;;;;;;13.38;9.88;;;;;;;21.11;69.11;96299.06;4930470;29;20048;-83
2023/06/30 10:40:44;;;;;;;13.10;9.73;;;;;;;21.10;69.38;96288.72;4929857;29;20052;-83
2023/06/30 10:43:13;;;;;;;11.85;9.57;;;;;;;21.09;69.65;96293.22;4929685;29;20056;-84
2023/06/30 10:46:07;;;;;;;14.50;10.80;;;;;;;21.10;70.16;96292.19;4930272;29;20481;-87
2023/06/30 10:48:40;;;;;;;16.10;11.57;;;;;;;21.10;69.60;96280.75;4929905;29;20147;-85
2023/06/30 10:51:12;;;;;;;12.02;9.63;;;;;;;21.11;70.06;96280.50;4929040;29;20056;-84
2023/06/30 10:53:45;;;;;;;16.45;11.25;;;;;;;21.14;69.57;96280.00;4929705;29;20056;-82
2023/06/30 10:56:13;;;;;;;12.68;10.27;;;;;;;21.21;68.96;96277.13;4929778;29;20135;-82
2023/06/30 10:58:43;;;;;;;13.93;10.00;;;;;;;21.25;69.00;96274.75;4928717;29;20518;-84
2023/06/30 11:01:15;;;;;;;14.48;12.18;;;;;;;21.25;68.43;96283.50;4929446;29;20496;-84
2023/06/30 11:04:13;;;;;;;13.48;10.45;;;;;;;21.23;68.69;96282.16;4929587;29;20100;-85
2023/06/30 11:06:47;;;;;;;15.50;10.15;;;;;;;21.20;68.90;96288.78;4930085;29;20052;-84
2023/06/30 11:09:15;;;;;;;13.93;11.20;;;;;;;21.22;68.73;96289.31;4928523;29;20076;-85
2023/06/30 11:11:53;;;;;;;14.55;11.02;;;;;;;21.19;69.12;96287.19;4929569;29;20052;-83
2023/06/30 11:14:33;;;;;;;17.25;12.52;;;;;;;21.14;70.20;96285.31;4928778;29;20107;-83
2023/06/30 11:17:05;;;;;;;14.05;11.80;;;;;;;21.12;69.87;96271.50;4927891;29;20080;-84
2023/06/30 11:19:35;;;;;;;14.75;10.38;;;;;;;21.15;69.52;96271.00;4929239;29;20067;-84
2023/06/30 11:22:24;;;;;;;13.98;12.40;;;;;;;21.18;69.83;96264.38;4927822;29;20401;-84
2023/06/30 11:24:53;;;;;;;15.73;12.65;;;;;;;21.17;69.91;96266.22;4929953;29;20067;-85
2023/06/30 11:27:21;;;;;;;15.80;12.02;;;;;;;21.13;70.21;96272.31;4929346;29;20048;-85
2023/06/30 11:29:50;;;;;;;14.85;11.57;;;;;;;21.11;70.20;96274.41;4929370;29;20083;-86
2023/06/30 11:32:26;;;;;;;14.73;11.48;;;;;;;21.16;70.25;96272.56;4930629;29;20079;-84
2023/06/30 11:34:56;;;;;;;12.82;10.77;;;;;;;21.21;70.11;96271.81;4930190;29;20504;-86
2023/06/30 11:37:26;;;;;;;14.25;12.50;;;;;;;21.25;70.15;96264.94;4928772;29;20131;-84
2023/06/30 11:39:58;;;;;;;16.60;12.40;;;;;;;21.29;69.82;96259.91;4924163;29;20063;-85